Time;durP1;ratioP1;P1;durP2;ratioP2;P2;SDS_P1;SDS_P2;PMS_P1;PMS_P2;Temp;Humidity;BMP_temperature;BMP_pressure;BME280_temperature;BME280_humidity;BME280_pressure;Samples;Min_cycle;Max_cycle;Signal;HPM_P1;HPM_P2
2022/01/28 00:00:06;;;;;;;;;;;7.30;99.90;;;;;;5059611;28;20395;-71
2022/01/28 00:05:20;;;;;;;18.98;2.20;;;7.30;99.90;;;;;;5073301;28;20032;-73
2022/01/28 00:07:46;;;;;;;16.88;2.50;;;7.30;99.90;;;;;;5073240;28;20028;-72
2022/01/28 00:10:12;;;;;;;21.38;2.00;;;7.30;99.90;;;;;;5053634;28;20025;-74
2022/01/28 00:12:52;;;;;;;12.30;2.17;;;7.30;99.90;;;;;;5053272;28;20116;-71
2022/01/28 00:15:29;;;;;;;13.48;2.78;;;7.40;99.90;;;;;;5035378;28;20451;-73
2022/01/28 00:37:14;;;;;;;27.30;2.97;;;7.40;99.90;;;;;;5052773;28;20094;-69
2022/01/28 00:39:40;;;;;;;47.83;17.02;;;7.50;99.90;;;;;;5052998;28;20032;-73
2022/01/28 00:42:06;;;;;;;23.23;3.45;;;7.40;99.90;;;;;;5053527;28;20029;-69
2022/01/28 00:44:31;;;;;;;22.40;2.70;;;7.50;99.90;;;;;;5072888;28;20071;-71
2022/01/28 00:46:57;;;;;;;15.95;2.38;;;7.40;99.90;;;;;;5072806;28;20078;-70
2022/01/28 00:49:23;;;;;;;18.67;2.70;;;7.50;99.90;;;;;;5072822;28;20056;-70
2022/01/28 00:51:49;;;;;;;17.67;2.53;;;7.50;99.90;;;;;;5072747;28;20028;-73
2022/01/28 00:54:16;;;;;;;16.02;2.80;;;7.50;99.90;;;;;;5058699;28;20021;-70
2022/01/28 00:56:42;;;;;;;20.77;2.35;;;7.60;99.90;;;;;;5052332;28;20039;-71
2022/01/28 00:59:08;;;;;;;13.63;2.10;;;7.60;99.90;;;;;;5051971;28;20029;-69
2022/01/28 01:01:33;;;;;;;14.50;2.38;;;7.60;99.90;;;;;;5061752;28;20425;-73
2022/01/28 01:04:00;;;;;;;14.68;2.70;;;7.60;99.90;;;;;;5072270;28;20477;-72
2022/01/28 01:06:26;;;;;;;18.52;2.42;;;7.60;99.90;;;;;;5072596;28;20032;-71
2022/01/28 01:08:53;;;;;;;16.98;2.60;;;7.60;99.90;;;;;;5072564;28;20039;-72
2022/01/28 01:11:21;;;;;;;12.82;2.05;;;7.60;99.90;;;;;;5072615;28;20029;-71
2022/01/28 01:13:48;;;;;;;20.77;2.92;;;7.60;99.90;;;;;;5065946;28;20462;-71
2022/01/28 01:16:17;;;;;;;18.13;2.60;;;7.60;99.90;;;;;;5052324;28;20063;-70
2022/01/28 01:19:13;;;;;;;21.17;3.00;;;7.70;99.90;;;;;;5052406;28;20017;-72
2022/01/28 01:21:41;;;;;;;14.13;1.98;;;7.70;99.90;;;;;;5052476;28;20386;-73
2022/01/28 01:24:09;;;;;;;15.60;1.70;;;7.70;99.90;;;;;;5057716;28;20020;-71
2022/01/28 01:26:38;;;;;;;15.38;2.25;;;7.80;99.90;;;;;;5054250;28;20024;-71
2022/01/28 01:29:07;;;;;;;18.58;2.53;;;7.80;99.90;;;;;;5072276;28;20108;-74
2022/01/28 01:31:33;;;;;;;15.05;2.70;;;7.80;99.90;;;;;;5072128;28;20025;-71
2022/01/28 01:34:09;;;;;;;11.15;2.22;;;7.80;99.90;;;;;;5071624;28;20135;-73
2022/01/28 01:36:35;;;;;;;16.38;2.15;;;7.80;99.90;;;;;;5072166;28;20089;-71
2022/01/28 01:39:02;;;;;;;13.82;1.70;;;7.80;99.90;;;;;;5072044;28;20024;-70
2022/01/28 01:42:11;;;;;;;13.50;2.17;;;7.70;99.90;;;;;;5068626;28;20112;-71
2022/01/28 01:44:36;;;;;;;13.60;2.55;;;7.70;99.90;;;;;;5048686;28;20045;-70
2022/01/28 01:53:12;;;;;;;13.82;2.42;;;7.60;99.90;;;;;;5029580;28;20465;-72
2022/01/28 01:55:40;;;;;;;17.90;2.45;;;7.60;99.90;;;;;;5029184;28;20095;-70
2022/01/28 01:58:05;;;;;;;13.27;1.83;;;7.50;99.90;;;;;;5039767;28;20050;-72
2022/01/28 02:00:31;;;;;;;18.02;3.22;;;7.50;99.90;;;;;;5034035;28;20022;-73
2022/01/28 02:02:56;;;;;;;14.68;2.28;;;7.50;99.90;;;;;;5051866;28;20048;-67
2022/01/28 02:05:22;;;;;;;12.50;2.08;;;7.40;99.90;;;;;;5051393;28;20032;-72
2022/01/28 02:07:48;;;;;;;11.65;1.80;;;7.40;99.90;;;;;;5052146;28;20079;-72
2022/01/28 02:10:14;;;;;;;14.48;3.03;;;7.40;99.90;;;;;;5054754;28;20029;-71
2022/01/28 02:12:44;;;;;;;20.05;2.90;;;7.40;99.90;;;;;;5055490;28;20082;-72
2022/01/28 02:15:10;;;;;;;12.75;2.15;;;7.30;99.90;;;;;;5038331;28;20052;-71
2022/01/28 02:17:35;;;;;;;10.93;2.13;;;7.30;99.90;;;;;;5055433;28;20077;-72
2022/01/28 02:20:01;;;;;;;17.83;2.38;;;7.30;99.90;;;;;;5037386;28;20021;-70
2022/01/28 02:22:27;;;;;;;12.40;2.22;;;7.30;99.90;;;;;;5037348;28;20032;-70
2022/01/28 02:24:52;;;;;;;16.88;1.90;;;7.30;99.90;;;;;;5055168;28;20033;-72
2022/01/28 02:27:18;;;;;;;12.77;1.85;;;7.30;99.90;;;;;;5054892;28;20485;-70
2022/01/28 02:29:45;;;;;;;10.10;1.75;;;7.30;99.90;;;;;;5042903;28;20037;-70
2022/01/28 02:32:12;;;;;;;8.40;1.50;;;7.20;99.90;;;;;;5074800;28;20381;-72
2022/01/28 02:34:39;;;;;;;17.23;1.98;;;7.20;99.90;;;;;;5075011;28;20016;-71
2022/01/28 02:37:05;;;;;;;16.40;2.08;;;7.20;99.90;;;;;;5056092;28;20400;-73
2022/01/28 02:39:31;;;;;;;15.00;2.00;;;7.20;99.90;;;;;;5070832;28;20424;-70
2022/01/28 02:42:12;;;;;;;5.75;1.75;;;7.20;99.90;;;;;;5055273;28;20108;-73
2022/01/28 02:45:01;;;;;;;17.23;2.00;;;7.20;99.90;;;;;;5038832;28;20028;-71
2022/01/28 02:47:33;;;;;;;13.35;2.33;;;7.20;99.90;;;;;;5074043;28;20391;-69
2022/01/28 02:49:59;;;;;;;12.63;1.60;;;7.20;99.90;;;;;;5054642;28;20059;-71
2022/01/28 02:52:36;;;;;;;18.38;1.80;;;7.20;99.90;;;;;;5074906;28;20036;-69
2022/01/28 02:55:07;;;;;;;17.63;2.30;;;7.20;99.90;;;;;;5042280;28;20364;-73
2022/01/28 02:57:34;;;;;;;17.58;1.70;;;7.10;99.90;;;;;;5073439;28;20040;-69
2022/01/28 02:59:59;;;;;;;12.80;2.10;;;7.20;99.90;;;;;;5063057;28;20466;-72
2022/01/28 03:02:25;;;;;;;16.23;1.80;;;7.10;99.90;;;;;;5054573;28;20033;-69
2022/01/28 03:07:34;;;;;;;14.20;2.20;;;7.10;99.90;;;;;;5054257;28;20036;-73
2022/01/28 03:10:14;;;;;;;10.23;1.73;;;7.10;99.90;;;;;;5054445;28;20386;-70
2022/01/28 03:13:03;;;;;;;17.75;2.70;;;7.10;99.90;;;;;;5054999;28;20064;-69
2022/01/28 03:15:28;;;;;;;10.70;1.83;;;7.10;99.90;;;;;;5054230;28;20021;-72
2022/01/28 03:18:07;;;;;;;9.10;1.50;;;7.10;99.90;;;;;;5054385;28;20041;-72
2022/01/28 03:20:41;;;;;;;15.45;2.33;;;7.00;99.90;;;;;;5053778;28;20021;-70
2022/01/28 03:23:07;;;;;;;11.75;1.88;;;7.00;99.90;;;;;;5054008;28;20104;-70
2022/01/28 03:25:41;;;;;;;18.65;2.10;;;7.00;99.90;;;;;;5054223;28;20025;-71
2022/01/28 03:28:06;;;;;;;20.17;3.00;;;7.00;99.90;;;;;;5036328;28;20104;-73
2022/01/28 03:30:32;;;;;;;15.52;1.83;;;7.00;99.90;;;;;;5054439;28;20120;-71
2022/01/28 03:32:58;;;;;;;16.05;2.92;;;7.00;99.90;;;;;;5071510;28;20025;-70
2022/01/28 03:35:23;;;;;;;14.98;1.90;;;7.00;99.90;;;;;;5074097;28;20070;-72
2022/01/28 03:37:58;;;;;;;16.77;2.60;;;7.00;99.90;;;;;;5073328;28;20052;-71
2022/01/28 03:40:23;;;;;;;16.15;2.90;;;7.00;99.90;;;;;;5073747;28;20028;-72
2022/01/28 03:42:49;;;;;;;16.58;2.47;;;7.00;99.90;;;;;;5055811;28;20492;-72
2022/01/28 03:45:15;;;;;;;17.00;2.15;;;7.00;99.90;;;;;;5073956;28;20454;-72
2022/01/28 03:47:40;;;;;;;20.15;2.78;;;7.00;99.90;;;;;;5065767;28;20379;-74
2022/01/28 03:50:07;;;;;;;15.18;2.45;;;7.00;99.90;;;;;;5073072;28;20513;-71
2022/01/28 03:52:32;;;;;;;41.05;3.53;;;6.90;99.90;;;;;;5073439;28;20029;-70
2022/01/28 03:54:58;;;;;;;14.00;1.70;;;7.00;99.90;;;;;;5067340;28;20104;-72
2022/01/28 03:57:23;;;;;;;12.30;1.77;;;6.90;99.90;;;;;;5053439;28;20115;-72
2022/01/28 03:59:49;;;;;;;17.58;1.98;;;7.00;99.90;;;;;;5035441;28;20033;-72
2022/01/28 04:02:19;;;;;;;18.80;2.60;;;6.90;99.90;;;;;;5053524;28;20025;-68
2022/01/28 04:06:00;;;;;;;21.33;2.22;;;6.90;99.90;;;;;;5053699;28;20031;-70
2022/01/28 04:13:02;;;;;;;18.30;2.10;;;6.90;99.90;;;;;;5073550;28;20496;-72
2022/01/28 04:15:50;;;;;;;19.67;3.10;;;6.90;99.90;;;;;;5073088;28;20104;-70
2022/01/28 04:18:15;;;;;;;13.18;2.08;;;6.90;99.90;;;;;;5064999;28;20144;-72
2022/01/28 04:20:41;;;;;;;14.55;2.40;;;6.90;99.90;;;;;;5053057;28;20056;-70
2022/01/28 04:23:06;;;;;;;16.00;1.90;;;6.90;99.90;;;;;;5053939;28;20028;-70
2022/01/28 04:25:32;;;;;;;19.73;2.13;;;6.90;99.90;;;;;;5072536;28;20028;-72
2022/01/28 04:27:58;;;;;;;15.75;2.05;;;6.90;99.90;;;;;;5067340;28;20101;-71
2022/01/28 04:30:23;;;;;;;12.38;1.88;;;6.90;99.90;;;;;;5052583;28;20029;-69
2022/01/28 04:32:50;;;;;;;8.48;1.60;;;7.00;99.90;;;;;;5054787;28;20448;-70
2022/01/28 04:35:16;;;;;;;14.00;2.28;;;7.00;99.90;;;;;;5072494;28;20031;-69
2022/01/28 04:40:14;;;;;;;9.77;1.38;;;7.10;99.90;;;;;;5052594;28;20132;-70
2022/01/28 04:47:46;;;;;;;10.27;1.73;;;7.00;99.90;;;;;;5071145;28;20497;-70
2022/01/28 04:55:51;;;;;;;9.48;1.50;;;6.90;99.90;;;;;;5064785;28;20036;-69
2022/01/28 05:01:20;;;;;;;11.93;1.80;;;6.90;99.90;;;;;;5052613;28;20090;-71
2022/01/28 05:04:10;;;;;;;15.93;1.50;;;6.90;99.90;;;;;;5052172;28;20116;-73
2022/01/28 05:28:36;;;;;;;14.10;2.83;;;6.70;99.90;;;;;;5055535;28;20096;-68
2022/01/28 05:31:02;;;;;;;18.75;1.73;;;6.60;99.90;;;;;;5063616;28;20124;-70
2022/01/28 05:33:27;;;;;;;13.07;1.90;;;6.60;99.90;;;;;;5072007;28;20116;-71
2022/01/28 05:35:53;;;;;;;17.90;2.28;;;6.60;99.90;;;;;;5054209;28;20028;-70
2022/01/28 05:38:18;;;;;;;14.68;1.80;;;6.60;99.90;;;;;;5065669;28;20044;-69
2022/01/28 05:40:45;;;;;;;11.43;1.65;;;6.60;99.90;;;;;;5052066;28;20080;-72
2022/01/28 05:43:10;;;;;;;19.33;2.58;;;6.60;99.90;;;;;;5051964;28;20035;-72
2022/01/28 05:45:36;;;;;;;10.52;1.63;;;6.60;99.90;;;;;;5037436;28;20025;-70
2022/01/28 05:48:01;;;;;;;12.98;2.13;;;6.70;99.90;;;;;;5058938;28;20028;-72
2022/01/28 05:50:27;;;;;;;9.25;1.70;;;6.70;99.90;;;;;;5075563;28;20373;-69
2022/01/28 05:52:52;;;;;;;11.07;1.63;;;6.80;99.90;;;;;;5075552;28;20452;-70
2022/01/28 05:55:18;;;;;;;10.75;1.58;;;6.80;99.90;;;;;;5056926;28;20032;-69
2022/01/28 05:57:44;;;;;;;10.95;1.67;;;6.90;99.90;;;;;;5069996;28;20069;-70
2022/01/28 06:00:10;;;;;;;13.55;1.67;;;7.00;99.90;;;;;;5055959;28;20355;-69
2022/01/28 06:02:36;;;;;;;14.15;1.88;;;7.10;99.90;;;;;;5055943;28;20032;-73
2022/01/28 06:05:02;;;;;;;7.20;1.50;;;7.10;99.90;;;;;;5056017;28;20033;-69
2022/01/28 06:07:27;;;;;;;12.98;2.47;;;7.20;99.90;;;;;;5058053;28;20045;-71
2022/01/28 06:09:53;;;;;;;14.15;1.90;;;7.20;99.90;;;;;;5075744;28;20382;-71
2022/01/28 06:12:20;;;;;;;14.50;2.33;;;7.30;99.90;;;;;;5061209;28;20036;-69
2022/01/28 06:14:46;;;;;;;16.15;2.88;;;7.30;99.90;;;;;;5037615;28;20032;-72
2022/01/28 06:17:11;;;;;;;9.98;1.63;;;7.30;99.90;;;;;;5055388;28;20033;-73
2022/01/28 06:19:37;;;;;;;10.95;2.38;;;7.30;99.90;;;;;;5055681;28;20017;-71
2022/01/28 06:22:03;;;;;;;22.33;6.40;;;7.40;99.90;;;;;;5055696;28;20394;-71
2022/01/28 06:24:28;;;;;;;13.82;3.50;;;7.40;99.90;;;;;;5037433;28;20161;-71
2022/01/28 06:26:55;;;;;;;12.98;2.47;;;7.50;99.90;;;;;;5056358;28;20048;-73
2022/01/28 06:29:20;;;;;;;15.95;2.50;;;7.40;99.90;;;;;;5055327;28;20059;-70
2022/01/28 06:31:47;;;;;;;15.55;2.15;;;7.50;99.90;;;;;;5065725;28;20037;-70
2022/01/28 06:34:13;;;;;;;10.05;1.70;;;7.50;99.90;;;;;;5075395;28;20027;-68
2022/01/28 06:36:38;;;;;;;17.67;2.42;;;7.50;99.90;;;;;;5057113;28;20037;-71
2022/01/28 06:39:04;;;;;;;12.77;2.15;;;7.40;99.90;;;;;;5055202;28;20083;-72
2022/01/28 06:41:30;;;;;;;13.25;2.70;;;7.40;99.90;;;;;;5055231;28;20025;-71
2022/01/28 06:43:57;;;;;;;16.52;2.30;;;7.40;99.90;;;;;;5069378;28;20024;-68
2022/01/28 06:46:23;;;;;;;13.80;2.28;;;7.40;99.90;;;;;;5072634;28;20063;-68
2022/01/28 06:48:49;;;;;;;13.30;2.22;;;7.40;99.90;;;;;;5057466;28;20088;-73
2022/01/28 06:51:14;;;;;;;10.85;2.35;;;7.40;99.90;;;;;;5054897;28;20378;-72
2022/01/28 06:53:40;;;;;;;11.88;3.53;;;7.40;99.90;;;;;;5055078;28;20068;-71
2022/01/28 06:56:05;;;;;;;11.13;2.33;;;7.50;99.90;;;;;;5053414;28;20032;-69
2022/01/28 06:58:31;;;;;;;12.05;1.83;;;7.50;99.90;;;;;;5068318;28;20067;-71
2022/01/28 07:00:57;;;;;;;18.58;2.58;;;7.50;99.90;;;;;;5064438;28;20074;-72
2022/01/28 07:03:22;;;;;;;12.00;1.90;;;7.50;99.90;;;;;;5055263;28;20425;-72
2022/01/28 07:05:48;;;;;;;14.07;2.92;;;7.60;99.90;;;;;;5036376;28;20067;-74
2022/01/28 07:08:13;;;;;;;17.83;2.30;;;7.60;99.90;;;;;;5054539;28;20029;-73
2022/01/28 07:10:39;;;;;;;10.52;2.13;;;7.60;99.90;;;;;;5054686;28;20035;-72
2022/01/28 07:13:05;;;;;;;14.75;2.00;;;7.50;99.90;;;;;;5054767;28;20035;-70
2022/01/28 07:15:31;;;;;;;118.18;55.38;;;7.50;99.90;;;;;;5072068;28;20489;-71
2022/01/28 07:18:00;;;;;;;21.05;3.65;;;7.50;99.90;;;;;;5074740;28;20039;-70
2022/01/28 07:20:29;;;;;;;23.25;3.45;;;7.50;99.90;;;;;;5070999;28;20016;-71
2022/01/28 07:22:54;;;;;;;13.10;2.13;;;7.50;99.90;;;;;;5065344;28;20016;-74
2022/01/28 07:25:20;;;;;;;14.23;2.50;;;7.50;99.90;;;;;;5053991;28;20040;-72
2022/01/28 07:27:46;;;;;;;14.95;2.40;;;7.50;99.90;;;;;;5061125;28;20031;-71
2022/01/28 07:30:13;;;;;;;12.40;1.98;;;7.50;99.90;;;;;;5074565;28;20021;-72
2022/01/28 07:32:39;;;;;;;14.38;2.45;;;7.40;99.90;;;;;;5063801;28;20036;-71
2022/01/28 07:35:05;;;;;;;16.23;2.45;;;7.40;99.90;;;;;;5053716;28;20417;-71
2022/01/28 07:37:31;;;;;;;13.70;2.92;;;7.30;99.90;;;;;;5053523;28;20119;-73
2022/01/28 07:39:56;;;;;;;16.70;2.10;;;7.30;99.90;;;;;;5054097;28;20479;-71
2022/01/28 07:42:24;;;;;;;18.48;3.10;;;7.20;99.90;;;;;;5066382;28;20032;-69
2022/01/28 07:44:49;;;;;;;16.67;2.15;;;7.20;99.90;;;;;;5063717;28;20116;-73
2022/01/28 07:47:15;;;;;;;13.82;2.85;;;7.10;99.90;;;;;;5067657;28;20108;-71
2022/01/28 07:49:40;;;;;;;11.75;2.13;;;7.10;99.90;;;;;;5064106;28;20088;-73
2022/01/28 07:52:06;;;;;;;18.27;2.10;;;7.00;99.90;;;;;;5061911;28;20070;-70
2022/01/28 07:54:32;;;;;;;22.98;2.42;;;6.90;99.90;;;;;;5052516;28;20123;-71
2022/01/28 07:56:58;;;;;;;15.50;2.95;;;6.90;99.90;;;;;;5052726;28;20029;-70
2022/01/28 07:59:24;;;;;;;20.58;3.28;;;6.90;99.90;;;;;;5062920;28;20020;-73
2022/01/28 08:01:49;;;;;;;25.25;3.80;;;6.90;99.90;;;;;;5072784;28;20474;-71
2022/01/28 08:04:15;;;;;;;11.68;2.15;;;6.80;99.90;;;;;;5054114;28;20124;-72
2022/01/28 08:06:41;;;;;;;22.73;2.72;;;6.80;99.90;;;;;;5072496;28;20119;-72
2022/01/28 08:09:07;;;;;;;17.15;3.17;;;6.80;99.90;;;;;;5055304;28;20419;-70
2022/01/28 08:11:34;;;;;;;17.05;2.60;;;6.80;99.90;;;;;;5073409;28;20115;-73
2022/01/28 08:13:59;;;;;;;20.70;3.15;;;6.70;99.90;;;;;;5073045;28;20024;-69
2022/01/28 08:16:25;;;;;;;17.40;2.45;;;6.70;99.90;;;;;;5073110;28;20035;-70
2022/01/28 08:18:51;;;;;;;20.70;3.47;;;6.70;99.90;;;;;;5073236;28;20103;-73
2022/01/28 08:21:16;;;;;;;19.70;3.00;;;6.80;99.90;;;;;;5072895;28;20032;-71
2022/01/28 08:23:42;;;;;;;18.08;3.15;;;6.80;99.90;;;;;;5055202;28;20028;-70
2022/01/28 08:26:08;;;;;;;22.63;3.05;;;6.80;99.90;;;;;;5073290;28;20025;-70
2022/01/28 08:28:35;;;;;;;28.40;4.13;;;6.90;99.90;;;;;;5073333;28;20025;-71
2022/01/28 08:31:01;;;;;;;21.15;3.05;;;7.00;99.90;;;;;;5073082;28;20028;-72
2022/01/28 08:33:27;;;;;;;22.27;3.30;;;7.10;99.90;;;;;;5072316;28;20040;-72
2022/01/28 08:35:55;;;;;;;14.48;2.88;;;7.20;99.90;;;;;;5070414;28;20048;-71
2022/01/28 08:38:26;;;;;;;17.23;2.92;;;7.50;99.90;;;;;;5072826;28;20127;-70
2022/01/28 08:40:53;;;;;;;19.25;3.78;;;7.60;99.90;;;;;;5070754;28;20029;-69
2022/01/28 08:43:20;;;;;;;19.05;2.42;;;7.70;99.90;;;;;;5072759;28;20033;-70
2022/01/28 08:45:45;;;;;;;21.73;3.58;;;7.80;99.90;;;;;;5072638;28;20035;-72
2022/01/28 08:48:11;;;;;;;15.48;2.35;;;7.90;99.90;;;;;;5072338;28;20041;-72
2022/01/28 08:50:37;;;;;;;17.77;2.40;;;7.90;99.90;;;;;;5072952;28;20044;-70
2022/01/28 08:53:02;;;;;;;20.40;3.03;;;7.90;99.90;;;;;;5072800;28;20031;-72
2022/01/28 08:55:28;;;;;;;24.48;2.65;;;7.90;99.90;;;;;;5072984;28;20024;-73
2022/01/28 08:57:54;;;;;;;21.00;4.43;;;7.90;99.90;;;;;;5054524;28;20036;-70
2022/01/28 09:00:22;;;;;;;21.33;2.95;;;7.90;99.90;;;;;;5072494;28;20347;-74
2022/01/28 09:02:48;;;;;;;15.85;2.20;;;7.90;99.90;;;;;;5072650;28;20099;-72
2022/01/28 09:05:14;;;;;;;30.45;7.15;;;7.90;99.90;;;;;;5072450;28;20146;-73
2022/01/28 09:07:40;;;;;;;14.80;3.10;;;8.00;99.90;;;;;;5071555;28;20060;-73
2022/01/28 09:10:12;;;;;;;18.23;2.92;;;7.90;99.90;;;;;;5072377;28;20483;-72
2022/01/28 09:12:46;;;;;;;16.80;4.10;;;8.00;99.90;;;;;;5072361;28;20454;-70
2022/01/28 09:15:13;;;;;;;17.75;2.53;;;8.00;99.90;;;;;;5072263;28;20112;-71
2022/01/28 09:17:38;;;;;;;15.32;2.60;;;8.10;99.90;;;;;;5072342;28;20504;-74
2022/01/28 09:20:05;;;;;;;19.05;2.33;;;8.10;99.90;;;;;;5075407;28;20048;-71
2022/01/28 09:22:30;;;;;;;12.40;2.42;;;8.20;99.90;;;;;;5076640;28;20103;-73
2022/01/28 09:24:56;;;;;;;16.23;2.35;;;8.30;99.90;;;;;;5076775;28;20147;-71
2022/01/28 09:27:22;;;;;;;20.67;2.40;;;8.40;99.90;;;;;;5076405;28;20458;-73
2022/01/28 09:29:48;;;;;;;14.43;2.20;;;8.50;99.90;;;;;;5076606;28;20039;-72
2022/01/28 09:32:16;;;;;;;17.75;2.75;;;8.60;99.90;;;;;;5058257;28;20020;-72
2022/01/28 09:34:43;;;;;;;15.75;2.42;;;8.70;99.90;;;;;;5076375;28;20024;-73
2022/01/28 09:37:08;;;;;;;16.92;2.13;;;8.90;99.90;;;;;;5075954;28;20508;-69
2022/01/28 09:39:36;;;;;;;16.35;2.60;;;9.00;99.90;;;;;;5076252;28;20056;-72
2022/01/28 09:42:03;;;;;;;15.90;2.33;;;9.30;99.90;;;;;;5076301;28;20017;-68
2022/01/28 09:44:33;;;;;;;17.48;2.20;;;9.60;99.90;;;;;;5076227;28;20025;-73
2022/01/28 09:46:59;;;;;;;14.50;2.30;;;10.00;99.90;;;;;;5076103;28;20028;-70
2022/01/28 09:49:26;;;;;;;8.43;1.90;;;10.40;99.90;;;;;;5075839;28;20041;-69
2022/01/28 09:51:52;;;;;;;7.07;1.80;;;10.80;99.90;;;;;;5058158;28;20028;-71
2022/01/28 09:54:18;;;;;;;17.52;2.45;;;11.30;99.90;;;;;;5058056;28;20078;-71
2022/01/28 09:56:43;;;;;;;13.20;1.80;;;11.50;99.90;;;;;;5075577;28;20428;-69
2022/01/28 09:59:09;;;;;;;11.85;2.25;;;11.80;99.90;;;;;;5075997;28;20033;-69
2022/01/28 10:01:34;;;;;;;11.88;2.65;;;12.00;99.90;;;;;;5075379;28;20050;-69
2022/01/28 10:04:05;;;;;;;15.65;1.33;;;12.00;99.90;;;;;;5075855;28;20036;-70
2022/01/28 10:06:33;;;;;;;13.13;1.98;;;12.20;99.90;;;;;;5075618;28;20028;-68
2022/01/28 10:09:05;;;;;;;7.47;1.58;;;12.80;99.90;;;;;;5075747;28;20036;-70
2022/01/28 10:11:30;;;;;;;20.02;7.00;;;13.20;99.90;;;;;;5075470;28;20118;-72
2022/01/28 10:14:07;;;;;;;11.30;2.38;;;13.50;99.90;;;;;;5075700;28;20075;-69
2022/01/28 10:16:34;;;;;;;14.65;2.70;;;14.00;99.90;;;;;;5075750;28;20081;-74
2022/01/28 10:19:04;;;;;;;10.68;2.45;;;14.50;99.90;;;;;;5075779;28;20467;-68
2022/01/28 10:21:38;;;;;;;14.15;2.30;;;14.50;99.90;;;;;;5075808;28;20029;-70
2022/01/28 10:24:19;;;;;;;14.70;2.08;;;14.80;99.90;;;;;;5075442;28;20553;-72
2022/01/28 10:27:09;;;;;;;18.85;2.30;;;15.20;99.90;;;;;;5057357;28;20028;-72
2022/01/28 10:29:35;;;;;;;10.75;1.73;;;15.40;99.90;;;;;;5050283;28;20040;-71
2022/01/28 10:32:04;;;;;;;10.93;2.28;;;15.60;99.40;;;;;;5057323;28;20359;-72
2022/01/28 10:34:44;;;;;;;10.93;1.85;;;16.10;99.10;;;;;;5075091;28;20039;-71
2022/01/28 10:37:12;;;;;;;10.25;1.70;;;16.60;97.80;;;;;;5066846;28;20029;-72
2022/01/28 10:39:52;;;;;;;9.68;1.60;;;16.80;96.70;;;;;;5055176;28;20033;-70
2022/01/28 10:42:41;;;;;;;7.20;1.33;;;17.10;95.90;;;;;;5055087;28;20021;-67
2022/01/28 10:45:14;;;;;;;12.70;2.88;;;17.10;94.10;;;;;;5058673;28;20031;-70
2022/01/28 10:47:45;;;;;;;13.25;2.67;;;16.70;94.50;;;;;;5074813;28;20036;-68
2022/01/28 10:50:36;;;;;;;13.15;1.92;;;16.50;94.80;;;;;;5074917;28;20049;-69
2022/01/28 10:53:04;;;;;;;10.30;2.10;;;16.70;94.30;;;;;;5056842;28;20154;-68
2022/01/28 10:55:32;;;;;;;7.22;1.92;;;17.00;94.00;;;;;;5075062;28;20066;-73
2022/01/28 10:58:07;;;;;;;12.43;1.90;;;17.10;93.50;;;;;;5074707;28;20428;-74
2022/01/28 11:00:57;;;;;;;10.55;1.70;;;17.10;93.30;;;;;;5074712;28;20044;-70
2022/01/28 11:03:26;;;;;;;7.53;1.80;;;17.10;93.20;;;;;;5060745;28;20028;-70
2022/01/28 11:05:56;;;;;;;9.02;1.77;;;17.10;93.10;;;;;;5054479;28;20021;-68
2022/01/28 11:08:25;;;;;;;12.60;1.73;;;17.10;93.10;;;;;;5054650;28;20062;-72
2022/01/28 11:10:50;;;;;;;10.63;2.33;;;17.10;93.00;;;;;;5054083;28;20123;-68
2022/01/28 11:13:17;;;;;;;12.48;1.77;;;17.20;92.70;;;;;;5054027;28;20478;-73
2022/01/28 11:15:43;;;;;;;8.10;2.13;;;17.10;92.50;;;;;;5054353;28;20455;-69
2022/01/28 11:18:10;;;;;;;5.70;1.23;;;17.40;93.40;;;;;;5054497;28;20037;-72
2022/01/28 11:20:53;;;;;;;7.78;1.13;;;18.10;92.20;;;;;;5054547;28;20498;-72
2022/01/28 11:23:30;;;;;;;13.10;2.30;;;18.40;87.60;;;;;;5054590;28;20044;-71
2022/01/28 11:26:14;;;;;;;9.40;1.85;;;18.30;90.30;;;;;;5054640;28;20056;-74
2022/01/28 11:28:51;;;;;;;13.48;2.45;;;18.20;90.10;;;;;;5054263;28;20028;-71
2022/01/28 11:31:50;;;;;;;5.85;1.55;;;17.90;90.40;;;;;;5054344;28;20061;-70
2022/01/28 11:34:22;;;;;;;9.23;2.17;;;17.40;91.20;;;;;;5035988;28;20143;-71
2022/01/28 11:36:49;;;;;;;9.93;2.08;;;17.20;91.50;;;;;;5061683;28;20115;-72
2022/01/28 11:39:21;;;;;;;9.25;1.85;;;17.10;91.60;;;;;;5073848;28;20017;-74
2022/01/28 11:42:00;;;;;;;;;;;16.80;92.10;;;;;;5073550;28;20048;-72
2022/01/28 11:44:59;;;;;;;13.05;2.63;;;16.40;93.20;;;;;;5074044;28;19905;-72
2022/01/28 11:47:41;;;;;;;14.27;2.42;;;16.00;94.40;;;;;;5073686;28;20028;-71
2022/01/28 11:50:17;;;;;;;9.95;2.00;;;15.60;94.90;;;;;;5073787;28;20044;-70
2022/01/28 11:53:01;;;;;;;13.88;2.80;;;15.60;95.90;;;;;;5073888;28;20153;-69
2022/01/28 11:55:27;;;;;;;12.43;1.95;;;15.80;95.50;;;;;;5073966;28;20024;-72
2022/01/28 11:58:13;;;;;;;11.18;1.83;;;15.60;95.40;;;;;;5073152;28;20498;-71
2022/01/28 12:00:45;;;;;;;13.88;2.10;;;15.40;95.70;;;;;;5073264;28;20036;-69
2022/01/28 12:03:16;;;;;;;13.80;1.90;;;15.00;96.30;;;;;;5073313;28;20047;-68
2022/01/28 12:05:41;;;;;;;15.05;2.30;;;14.80;97.30;;;;;;5073472;28;20373;-70
2022/01/28 12:08:09;;;;;;;12.15;1.67;;;15.10;96.90;;;;;;5072774;28;20024;-69
2022/01/28 12:10:41;;;;;;;11.82;1.70;;;15.30;96.50;;;;;;5073163;28;20115;-71
2022/01/28 12:13:12;;;;;;;10.75;2.05;;;15.50;96.00;;;;;;5073234;28;20021;-66
2022/01/28 12:18:24;;;;;;;11.73;1.77;;;16.30;95.00;;;;;;5073427;28;20050;-70
2022/01/28 12:20:50;;;;;;;19.17;3.50;;;16.30;94.30;;;;;;5073549;28;20032;-71
2022/01/28 12:23:18;;;;;;;8.77;1.45;;;16.20;94.40;;;;;;5073292;28;20074;-71
2022/01/28 12:25:44;;;;;;;12.25;1.63;;;16.30;94.10;;;;;;5073155;28;20031;-73
2022/01/28 12:28:20;;;;;;;10.75;2.03;;;16.10;94.70;;;;;;5073037;28;20413;-73
2022/01/28 12:30:50;;;;;;;10.23;1.95;;;15.90;95.30;;;;;;5072924;28;20028;-71
2022/01/28 12:33:22;;;;;;;12.20;2.42;;;15.80;94.70;;;;;;5072792;28;20029;-72
2022/01/28 12:35:51;;;;;;;6.82;1.08;;;15.70;94.60;;;;;;5073101;28;20484;-68
2022/01/28 12:38:21;;;;;;;9.75;1.45;;;15.80;94.20;;;;;;5072790;28;20044;-72
2022/01/28 12:40:49;;;;;;;9.13;1.63;;;15.80;95.10;;;;;;5072950;28;20027;-69
2022/01/28 12:43:23;;;;;;;10.27;1.55;;;15.60;95.30;;;;;;5072767;28;20023;-69
2022/01/28 12:46:13;;;;;;;10.73;2.00;;;15.40;95.50;;;;;;5072629;28;20558;-71
2022/01/28 12:48:49;;;;;;;10.07;1.80;;;15.60;95.90;;;;;;5072736;28;20500;-71
2022/01/28 12:51:16;;;;;;;13.45;1.90;;;15.70;95.30;;;;;;5073079;28;20017;-73
2022/01/28 12:53:44;;;;;;;12.70;2.20;;;15.60;95.80;;;;;;5071825;28;20027;-67
2022/01/28 12:56:12;;;;;;;15.88;1.80;;;15.70;96.20;;;;;;5072489;28;20025;-71
2022/01/28 12:58:48;;;;;;;7.68;1.55;;;15.60;96.20;;;;;;5072380;28;20040;-71
2022/01/28 13:01:17;;;;;;;9.35;1.63;;;15.20;96.50;;;;;;5054488;28;20055;-69
2022/01/28 13:03:57;;;;;;;9.63;1.58;;;14.40;98.00;;;;;;5072451;28;20074;-68
2022/01/28 13:09:13;;;;;;;16.67;2.10;;;13.90;99.90;;;;;;5072307;28;20025;-72
2022/01/28 13:11:44;;;;;;;12.15;2.05;;;13.80;99.90;;;;;;5072507;28;20021;-71
2022/01/28 13:14:11;;;;;;;13.53;2.57;;;13.60;99.90;;;;;;5072769;28;20025;-72
2022/01/28 13:16:48;;;;;;;12.65;2.42;;;13.40;99.90;;;;;;5072588;28;20020;-69
2022/01/28 13:19:16;;;;;;;14.73;3.05;;;13.30;99.90;;;;;;5072677;28;20082;-72
2022/01/28 13:21:43;;;;;;;10.40;2.13;;;13.00;99.90;;;;;;5072482;28;20067;-71
2022/01/28 13:24:20;;;;;;;13.50;2.55;;;12.80;99.90;;;;;;5072346;28;20501;-71
2022/01/28 13:27:03;;;;;;;15.38;3.20;;;12.50;99.90;;;;;;5072664;28;20052;-73
2022/01/28 13:29:32;;;;;;;15.93;2.83;;;12.40;99.90;;;;;;5054061;28;20024;-70
2022/01/28 13:31:59;;;;;;;16.13;3.53;;;12.30;99.90;;;;;;5072304;28;20024;-71
2022/01/28 13:34:25;;;;;;;14.40;2.75;;;12.20;99.90;;;;;;5072234;28;20033;-67
2022/01/28 13:36:53;;;;;;;12.98;2.75;;;12.00;99.90;;;;;;5072099;28;20032;-69
2022/01/28 13:39:27;;;;;;;13.88;2.47;;;12.00;99.90;;;;;;5072236;28;20150;-69
2022/01/28 13:42:13;;;;;;;12.40;2.50;;;11.90;99.90;;;;;;5072207;28;20032;-72
2022/01/28 13:44:42;;;;;;;17.92;3.17;;;11.70;99.90;;;;;;5072498;28;20036;-69
2022/01/28 13:47:09;;;;;;;14.98;3.08;;;11.60;99.90;;;;;;5072295;28;20028;-70
2022/01/28 13:49:37;;;;;;;17.95;3.35;;;11.60;99.90;;;;;;5071919;28;20102;-69
2022/01/28 13:52:15;;;;;;;14.23;3.00;;;11.60;99.90;;;;;;5072075;28;20112;-70
2022/01/28 13:54:42;;;;;;;14.75;3.42;;;11.50;99.90;;;;;;5072029;28;20481;-71
2022/01/28 13:57:08;;;;;;;15.07;3.08;;;11.40;99.90;;;;;;5053896;28;20033;-71
2022/01/28 13:59:35;;;;;;;16.35;3.78;;;11.40;99.90;;;;;;5072068;28;20028;-72
2022/01/28 14:02:01;;;;;;;15.45;3.13;;;11.30;99.90;;;;;;5071970;28;20050;-68
2022/01/28 14:04:33;;;;;;;13.88;3.15;;;11.30;99.90;;;;;;5072114;28;20081;-69
2022/01/28 14:07:18;;;;;;;10.63;2.72;;;11.20;99.90;;;;;;5075777;28;20021;-69
2022/01/28 14:09:53;;;;;;;10.65;2.95;;;11.10;99.90;;;;;;5057721;28;20032;-72
2022/01/28 14:15:39;;;;;;;13.85;3.22;;;11.10;99.90;;;;;;5075544;28;20032;-68
2022/01/28 14:17:57;;;;;;;10.73;2.80;;;11.10;99.90;;;;;;5074955;28;20103;-69